Terminal Aerodrome Forecast
Issued by NWS

Home | Current Version | Previous Version | Text Only | Print | Product List | Glossary On
Versions: 1 2 3 4 5 6 7 8 9 10 11 12 13 14 15
131
FTUS43 KILX 241729
TAFBMI
TAF
KBMI 241729Z 2418/2518 21020G30KT P6SM SCT150
     FM250000 19013KT P6SM BKN070
     FM250300 18011KT P6SM VCTS BKN045CB
     FM250500 16008KT 4SM SHRA BR VCTS OVC025CB
     FM250900 15010KT 3SM SHRA BR VCTS OVC015CB
     FM251200 14012G20KT 3SM SHRA BR OVC010=

USA.gov is the U.S. government's official web portal to all federal, state and local government web resources and services.